sensor_id;sensor_type;location;lat;lon;timestamp;P1;durP1;ratioP1;P2;durP2;ratioP2
75628;SDS011;64213;46.452;16.994;2023-05-02T00:02:43;11.27;;;2.87;;
75628;SDS011;64213;46.452;16.994;2023-05-02T00:05:45;8.93;;;2.80;;
75628;SDS011;64213;46.452;16.994;2023-05-02T00:08:48;8.00;;;2.83;;
75628;SDS011;64213;46.452;16.994;2023-05-02T00:11:50;7.85;;;2.83;;
75628;SDS011;64213;46.452;16.994;2023-05-02T00:14:52;9.02;;;3.08;;
75628;SDS011;64213;46.452;16.994;2023-05-02T00:17:54;9.87;;;3.43;;
75628;SDS011;64213;46.452;16.994;2023-05-02T00:20:57;7.57;;;2.50;;
75628;SDS011;64213;46.452;16.994;2023-05-02T00:23:59;9.38;;;3.05;;
75628;SDS011;64213;46.452;16.994;2023-05-02T00:27:01;7.47;;;2.67;;
75628;SDS011;64213;46.452;16.994;2023-05-02T00:30:03;8.93;;;3.10;;
75628;SDS011;64213;46.452;16.994;2023-05-02T00:33:06;9.43;;;3.20;;
75628;SDS011;64213;46.452;16.994;2023-05-02T00:36:15;10.27;;;3.58;;
75628;SDS011;64213;46.452;16.994;2023-05-02T00:39:18;10.50;;;4.00;;
75628;SDS011;64213;46.452;16.994;2023-05-02T00:42:20;9.20;;;4.00;;
75628;SDS011;64213;46.452;16.994;2023-05-02T00:45:22;10.35;;;4.03;;
75628;SDS011;64213;46.452;16.994;2023-05-02T00:48:25;9.73;;;4.40;;
75628;SDS011;64213;46.452;16.994;2023-05-02T00:51:27;9.73;;;3.80;;
75628;SDS011;64213;46.452;16.994;2023-05-02T00:54:30;10.15;;;4.22;;
75628;SDS011;64213;46.452;16.994;2023-05-02T00:57:32;9.43;;;3.70;;
75628;SDS011;64213;46.452;16.994;2023-05-02T01:11:14;9.75;;;3.55;;
75628;SDS011;64213;46.452;16.994;2023-05-02T01:14:17;13.62;;;4.62;;
75628;SDS011;64213;46.452;16.994;2023-05-02T01:17:23;12.50;;;4.22;;
75628;SDS011;64213;46.452;16.994;2023-05-02T01:20:28;9.73;;;3.77;;
75628;SDS011;64213;46.452;16.994;2023-05-02T01:30:16;7.87;;;2.72;;
75628;SDS011;64213;46.452;16.994;2023-05-02T01:33:20;11.32;;;3.95;;
75628;SDS011;64213;46.452;16.994;2023-05-02T01:36:26;9.57;;;3.40;;
75628;SDS011;64213;46.452;16.994;2023-05-02T01:39:31;9.48;;;3.40;;
75628;SDS011;64213;46.452;16.994;2023-05-02T01:42:35;10.65;;;3.65;;
75628;SDS011;64213;46.452;16.994;2023-05-02T01:45:39;9.32;;;3.60;;
75628;SDS011;64213;46.452;16.994;2023-05-02T01:48:45;8.82;;;3.37;;
75628;SDS011;64213;46.452;16.994;2023-05-02T01:51:50;10.53;;;3.37;;
75628;SDS011;64213;46.452;16.994;2023-05-02T01:54:53;9.80;;;3.33;;
75628;SDS011;64213;46.452;16.994;2023-05-02T01:57:58;9.70;;;3.55;;
75628;SDS011;64213;46.452;16.994;2023-05-02T02:01:01;10.35;;;3.78;;
75628;SDS011;64213;46.452;16.994;2023-05-02T02:04:08;9.90;;;3.95;;
75628;SDS011;64213;46.452;16.994;2023-05-02T02:07:12;9.70;;;3.60;;
75628;SDS011;64213;46.452;16.994;2023-05-02T02:10:14;9.00;;;3.42;;
75628;SDS011;64213;46.452;16.994;2023-05-02T02:13:17;9.45;;;3.67;;
75628;SDS011;64213;46.452;16.994;2023-05-02T02:16:28;8.57;;;3.05;;
75628;SDS011;64213;46.452;16.994;2023-05-02T02:19:32;9.63;;;3.58;;
75628;SDS011;64213;46.452;16.994;2023-05-02T02:22:36;9.37;;;3.20;;
75628;SDS011;64213;46.452;16.994;2023-05-02T02:25:41;9.95;;;3.17;;
75628;SDS011;64213;46.452;16.994;2023-05-02T02:28:46;9.35;;;3.30;;
75628;SDS011;64213;46.452;16.994;2023-05-02T02:31:48;9.48;;;3.15;;
75628;SDS011;64213;46.452;16.994;2023-05-02T02:34:50;8.18;;;2.75;;
75628;SDS011;64213;46.452;16.994;2023-05-02T02:41:26;9.77;;;2.97;;
75628;SDS011;64213;46.452;16.994;2023-05-02T02:47:48;10.23;;;3.30;;
75628;SDS011;64213;46.452;16.994;2023-05-02T02:51:04;9.15;;;3.35;;
75628;SDS011;64213;46.452;16.994;2023-05-02T02:54:13;9.57;;;2.97;;
75628;SDS011;64213;46.452;16.994;2023-05-02T02:57:47;7.80;;;2.80;;
75628;SDS011;64213;46.452;16.994;2023-05-02T03:00:58;7.50;;;2.60;;
75628;SDS011;64213;46.452;16.994;2023-05-02T03:04:05;8.90;;;3.08;;
75628;SDS011;64213;46.452;16.994;2023-05-02T03:07:09;8.93;;;2.92;;
75628;SDS011;64213;46.452;16.994;2023-05-02T03:10:12;10.97;;;3.03;;
75628;SDS011;64213;46.452;16.994;2023-05-02T03:13:13;8.85;;;3.22;;
75628;SDS011;64213;46.452;16.994;2023-05-02T03:19:33;7.80;;;2.60;;
75628;SDS011;64213;46.452;16.994;2023-05-02T03:22:35;8.55;;;2.60;;
75628;SDS011;64213;46.452;16.994;2023-05-02T03:25:37;9.57;;;2.73;;
75628;SDS011;64213;46.452;16.994;2023-05-02T03:28:39;8.82;;;2.62;;
75628;SDS011;64213;46.452;16.994;2023-05-02T03:31:41;8.70;;;2.95;;
75628;SDS011;64213;46.452;16.994;2023-05-02T03:34:44;9.98;;;2.87;;
75628;SDS011;64213;46.452;16.994;2023-05-02T03:37:46;9.85;;;3.55;;
75628;SDS011;64213;46.452;16.994;2023-05-02T03:40:48;10.43;;;2.90;;
75628;SDS011;64213;46.452;16.994;2023-05-02T03:43:50;8.13;;;2.83;;
75628;SDS011;64213;46.452;16.994;2023-05-02T03:46:52;9.65;;;3.10;;
75628;SDS011;64213;46.452;16.994;2023-05-02T03:49:54;8.70;;;3.35;;
75628;SDS011;64213;46.452;16.994;2023-05-02T03:52:57;9.88;;;3.33;;
75628;SDS011;64213;46.452;16.994;2023-05-02T03:55:59;9.37;;;3.00;;
75628;SDS011;64213;46.452;16.994;2023-05-02T03:59:01;9.77;;;2.80;;
75628;SDS011;64213;46.452;16.994;2023-05-02T04:02:04;9.43;;;2.92;;
75628;SDS011;64213;46.452;16.994;2023-05-02T04:05:07;8.75;;;2.95;;
75628;SDS011;64213;46.452;16.994;2023-05-02T04:08:09;8.10;;;2.78;;
75628;SDS011;64213;46.452;16.994;2023-05-02T04:11:11;7.40;;;2.53;;
75628;SDS011;64213;46.452;16.994;2023-05-02T04:14:13;9.30;;;2.83;;
75628;SDS011;64213;46.452;16.994;2023-05-02T04:17:15;7.07;;;2.22;;
75628;SDS011;64213;46.452;16.994;2023-05-02T04:20:18;8.23;;;2.92;;
75628;SDS011;64213;46.452;16.994;2023-05-02T04:23:20;7.95;;;2.22;;
75628;SDS011;64213;46.452;16.994;2023-05-02T04:26:22;7.60;;;2.53;;
75628;SDS011;64213;46.452;16.994;2023-05-02T04:29:24;9.57;;;2.62;;
75628;SDS011;64213;46.452;16.994;2023-05-02T04:32:26;11.88;;;3.17;;
75628;SDS011;64213;46.452;16.994;2023-05-02T04:35:28;9.73;;;2.65;;
75628;SDS011;64213;46.452;16.994;2023-05-02T04:38:31;8.50;;;3.10;;
75628;SDS011;64213;46.452;16.994;2023-05-02T04:41:33;8.60;;;2.90;;
75628;SDS011;64213;46.452;16.994;2023-05-02T04:44:53;8.68;;;3.40;;
75628;SDS011;64213;46.452;16.994;2023-05-02T04:47:55;10.35;;;2.97;;
75628;SDS011;64213;46.452;16.994;2023-05-02T04:50:57;11.18;;;3.80;;
75628;SDS011;64213;46.452;16.994;2023-05-02T04:54:00;8.35;;;2.53;;
75628;SDS011;64213;46.452;16.994;2023-05-02T04:57:02;8.33;;;3.20;;
75628;SDS011;64213;46.452;16.994;2023-05-02T05:00:07;8.43;;;2.62;;
75628;SDS011;64213;46.452;16.994;2023-05-02T05:03:09;7.85;;;2.80;;
75628;SDS011;64213;46.452;16.994;2023-05-02T05:06:31;8.10;;;2.80;;
75628;SDS011;64213;46.452;16.994;2023-05-02T05:09:33;7.32;;;2.45;;
75628;SDS011;64213;46.452;16.994;2023-05-02T05:12:36;8.63;;;2.37;;
75628;SDS011;64213;46.452;16.994;2023-05-02T05:15:38;9.07;;;2.80;;
75628;SDS011;64213;46.452;16.994;2023-05-02T05:18:40;10.55;;;2.90;;
75628;SDS011;64213;46.452;16.994;2023-05-02T05:21:42;8.88;;;2.95;;
75628;SDS011;64213;46.452;16.994;2023-05-02T05:24:51;9.73;;;3.35;;
75628;SDS011;64213;46.452;16.994;2023-05-02T05:27:54;9.83;;;3.03;;
75628;SDS011;64213;46.452;16.994;2023-05-02T05:30:57;8.43;;;2.92;;
75628;SDS011;64213;46.452;16.994;2023-05-02T05:33:59;8.40;;;2.67;;
75628;SDS011;64213;46.452;16.994;2023-05-02T05:37:02;9.73;;;3.35;;
75628;SDS011;64213;46.452;16.994;2023-05-02T05:40:06;7.87;;;2.62;;
75628;SDS011;64213;46.452;16.994;2023-05-02T05:43:08;9.47;;;3.47;;
75628;SDS011;64213;46.452;16.994;2023-05-02T05:46:11;9.50;;;2.85;;
75628;SDS011;64213;46.452;16.994;2023-05-02T05:49:16;9.20;;;3.30;;
75628;SDS011;64213;46.452;16.994;2023-05-02T05:52:18;9.77;;;3.10;;
75628;SDS011;64213;46.452;16.994;2023-05-02T05:55:20;8.38;;;2.75;;
75628;SDS011;64213;46.452;16.994;2023-05-02T05:58:22;8.60;;;3.10;;
75628;SDS011;64213;46.452;16.994;2023-05-02T06:01:25;8.70;;;3.10;;
75628;SDS011;64213;46.452;16.994;2023-05-02T06:04:27;11.93;;;3.22;;
75628;SDS011;64213;46.452;16.994;2023-05-02T06:07:29;8.52;;;2.80;;
75628;SDS011;64213;46.452;16.994;2023-05-02T06:10:31;10.68;;;3.28;;
75628;SDS011;64213;46.452;16.994;2023-05-02T06:13:33;9.43;;;2.87;;
75628;SDS011;64213;46.452;16.994;2023-05-02T06:16:35;9.20;;;3.35;;
75628;SDS011;64213;46.452;16.994;2023-05-02T06:19:38;10.40;;;3.67;;
75628;SDS011;64213;46.452;16.994;2023-05-02T06:22:40;8.40;;;2.62;;
75628;SDS011;64213;46.452;16.994;2023-05-02T06:25:42;11.27;;;4.03;;
75628;SDS011;64213;46.452;16.994;2023-05-02T06:28:44;11.00;;;3.07;;
75628;SDS011;64213;46.452;16.994;2023-05-02T06:31:46;8.35;;;3.40;;
75628;SDS011;64213;46.452;16.994;2023-05-02T06:34:48;8.32;;;3.42;;
75628;SDS011;64213;46.452;16.994;2023-05-02T06:37:50;8.90;;;3.10;;
75628;SDS011;64213;46.452;16.994;2023-05-02T06:40:52;12.30;;;4.05;;
75628;SDS011;64213;46.452;16.994;2023-05-02T06:43:54;8.00;;;2.67;;
75628;SDS011;64213;46.452;16.994;2023-05-02T06:46:57;8.93;;;3.00;;
75628;SDS011;64213;46.452;16.994;2023-05-02T06:49:59;12.65;;;3.50;;
75628;SDS011;64213;46.452;16.994;2023-05-02T06:53:03;8.75;;;2.75;;
75628;SDS011;64213;46.452;16.994;2023-05-02T06:56:06;9.02;;;2.78;;
75628;SDS011;64213;46.452;16.994;2023-05-02T06:59:09;9.70;;;3.90;;
75628;SDS011;64213;46.452;16.994;2023-05-02T07:02:11;10.93;;;3.42;;
75628;SDS011;64213;46.452;16.994;2023-05-02T07:05:13;9.32;;;3.37;;
75628;SDS011;64213;46.452;16.994;2023-05-02T07:08:16;10.75;;;3.33;;
75628;SDS011;64213;46.452;16.994;2023-05-02T07:11:19;10.20;;;3.22;;
75628;SDS011;64213;46.452;16.994;2023-05-02T07:14:24;11.47;;;3.27;;
75628;SDS011;64213;46.452;16.994;2023-05-02T07:17:26;9.25;;;3.53;;
75628;SDS011;64213;46.452;16.994;2023-05-02T07:20:28;11.15;;;3.58;;
75628;SDS011;64213;46.452;16.994;2023-05-02T07:23:30;8.80;;;3.65;;
75628;SDS011;64213;46.452;16.994;2023-05-02T07:26:32;6.95;;;2.45;;
75628;SDS011;64213;46.452;16.994;2023-05-02T07:29:34;8.83;;;3.23;;
75628;SDS011;64213;46.452;16.994;2023-05-02T07:32:36;9.75;;;3.58;;
75628;SDS011;64213;46.452;16.994;2023-05-02T07:35:38;8.88;;;3.40;;
75628;SDS011;64213;46.452;16.994;2023-05-02T07:38:40;8.63;;;3.20;;
75628;SDS011;64213;46.452;16.994;2023-05-02T07:41:42;9.70;;;3.62;;
75628;SDS011;64213;46.452;16.994;2023-05-02T07:44:44;11.77;;;3.17;;
75628;SDS011;64213;46.452;16.994;2023-05-02T07:47:46;10.00;;;3.37;;
75628;SDS011;64213;46.452;16.994;2023-05-02T07:50:48;8.88;;;3.85;;
75628;SDS011;64213;46.452;16.994;2023-05-02T07:53:51;8.18;;;3.17;;
75628;SDS011;64213;46.452;16.994;2023-05-02T07:56:59;9.48;;;4.50;;
75628;SDS011;64213;46.452;16.994;2023-05-02T08:00:03;9.17;;;4.20;;
75628;SDS011;64213;46.452;16.994;2023-05-02T08:03:10;10.20;;;4.12;;
75628;SDS011;64213;46.452;16.994;2023-05-02T08:06:12;10.88;;;4.18;;
75628;SDS011;64213;46.452;16.994;2023-05-02T08:09:15;15.13;;;4.60;;
75628;SDS011;64213;46.452;16.994;2023-05-02T08:12:17;11.57;;;4.32;;
75628;SDS011;64213;46.452;16.994;2023-05-02T08:15:19;8.37;;;3.07;;
75628;SDS011;64213;46.452;16.994;2023-05-02T08:18:21;8.80;;;3.78;;
75628;SDS011;64213;46.452;16.994;2023-05-02T08:21:24;9.48;;;4.15;;
75628;SDS011;64213;46.452;16.994;2023-05-02T08:24:26;8.93;;;3.12;;
75628;SDS011;64213;46.452;16.994;2023-05-02T08:27:28;8.93;;;3.90;;
75628;SDS011;64213;46.452;16.994;2023-05-02T08:30:30;8.70;;;3.93;;
75628;SDS011;64213;46.452;16.994;2023-05-02T08:33:32;9.50;;;3.67;;
75628;SDS011;64213;46.452;16.994;2023-05-02T08:36:34;11.48;;;3.42;;
75628;SDS011;64213;46.452;16.994;2023-05-02T08:39:38;12.13;;;5.93;;
75628;SDS011;64213;46.452;16.994;2023-05-02T08:42:40;9.25;;;3.92;;
75628;SDS011;64213;46.452;16.994;2023-05-02T08:45:44;12.07;;;3.70;;
75628;SDS011;64213;46.452;16.994;2023-05-02T08:48:46;8.35;;;3.40;;
75628;SDS011;64213;46.452;16.994;2023-05-02T08:51:50;9.27;;;3.87;;
75628;SDS011;64213;46.452;16.994;2023-05-02T08:54:56;8.82;;;3.90;;
75628;SDS011;64213;46.452;16.994;2023-05-02T08:57:59;10.98;;;3.60;;
75628;SDS011;64213;46.452;16.994;2023-05-02T09:01:08;10.00;;;4.03;;
75628;SDS011;64213;46.452;16.994;2023-05-02T09:04:17;9.95;;;3.37;;
75628;SDS011;64213;46.452;16.994;2023-05-02T09:07:24;10.57;;;3.60;;
75628;SDS011;64213;46.452;16.994;2023-05-02T09:10:27;11.15;;;4.22;;
75628;SDS011;64213;46.452;16.994;2023-05-02T09:13:30;9.00;;;4.00;;
75628;SDS011;64213;46.452;16.994;2023-05-02T09:16:43;9.03;;;3.87;;
75628;SDS011;64213;46.452;16.994;2023-05-02T09:19:45;9.50;;;4.00;;
75628;SDS011;64213;46.452;16.994;2023-05-02T09:22:48;9.55;;;3.53;;
75628;SDS011;64213;46.452;16.994;2023-05-02T09:25:52;10.93;;;4.12;;
75628;SDS011;64213;46.452;16.994;2023-05-02T09:28:54;8.77;;;4.53;;
75628;SDS011;64213;46.452;16.994;2023-05-02T09:31:57;9.13;;;3.80;;
75628;SDS011;64213;46.452;16.994;2023-05-02T09:35:03;7.68;;;3.03;;
75628;SDS011;64213;46.452;16.994;2023-05-02T09:38:06;9.45;;;3.92;;
75628;SDS011;64213;46.452;16.994;2023-05-02T09:41:21;8.93;;;3.67;;
75628;SDS011;64213;46.452;16.994;2023-05-02T09:44:24;9.00;;;3.47;;
75628;SDS011;64213;46.452;16.994;2023-05-02T09:47:27;8.70;;;3.63;;
75628;SDS011;64213;46.452;16.994;2023-05-02T09:50:33;10.40;;;4.20;;
75628;SDS011;64213;46.452;16.994;2023-05-02T09:53:36;9.65;;;3.87;;
75628;SDS011;64213;46.452;16.994;2023-05-02T09:56:50;8.27;;;3.00;;
75628;SDS011;64213;46.452;16.994;2023-05-02T09:59:55;8.38;;;4.03;;
75628;SDS011;64213;46.452;16.994;2023-05-02T10:02:58;11.57;;;4.10;;
75628;SDS011;64213;46.452;16.994;2023-05-02T10:06:00;8.18;;;3.67;;
75628;SDS011;64213;46.452;16.994;2023-05-02T10:09:03;8.55;;;4.03;;
75628;SDS011;64213;46.452;16.994;2023-05-02T10:12:05;9.98;;;3.90;;
75628;SDS011;64213;46.452;16.994;2023-05-02T10:15:09;8.55;;;4.25;;
75628;SDS011;64213;46.452;16.994;2023-05-02T10:18:19;8.47;;;3.73;;
75628;SDS011;64213;46.452;16.994;2023-05-02T10:21:27;8.02;;;3.55;;
75628;SDS011;64213;46.452;16.994;2023-05-02T10:24:33;10.45;;;4.30;;
75628;SDS011;64213;46.452;16.994;2023-05-02T10:27:35;9.70;;;3.85;;
75628;SDS011;64213;46.452;16.994;2023-05-02T10:30:38;9.30;;;3.65;;
75628;SDS011;64213;46.452;16.994;2023-05-02T10:33:42;9.00;;;3.90;;
75628;SDS011;64213;46.452;16.994;2023-05-02T10:36:44;11.40;;;3.97;;
75628;SDS011;64213;46.452;16.994;2023-05-02T10:39:46;7.93;;;3.67;;
75628;SDS011;64213;46.452;16.994;2023-05-02T10:42:48;8.57;;;3.70;;
75628;SDS011;64213;46.452;16.994;2023-05-02T10:45:54;9.40;;;4.37;;
75628;SDS011;64213;46.452;16.994;2023-05-02T10:52:24;8.32;;;3.92;;
75628;SDS011;64213;46.452;16.994;2023-05-02T10:55:32;9.05;;;4.05;;
75628;SDS011;64213;46.452;16.994;2023-05-02T10:58:34;8.88;;;3.90;;
75628;SDS011;64213;46.452;16.994;2023-05-02T11:01:36;7.62;;;2.75;;
75628;SDS011;64213;46.452;16.994;2023-05-02T11:11:39;8.40;;;4.15;;
75628;SDS011;64213;46.452;16.994;2023-05-02T11:14:44;9.73;;;3.45;;
75628;SDS011;64213;46.452;16.994;2023-05-02T11:18:01;8.70;;;3.90;;
75628;SDS011;64213;46.452;16.994;2023-05-02T11:21:27;10.30;;;4.37;;
75628;SDS011;64213;46.452;16.994;2023-05-02T11:24:40;9.82;;;4.00;;
75628;SDS011;64213;46.452;16.994;2023-05-02T11:27:45;10.60;;;4.55;;
75628;SDS011;64213;46.452;16.994;2023-05-02T11:30:49;9.02;;;3.78;;
75628;SDS011;64213;46.452;16.994;2023-05-02T11:34:01;8.55;;;4.03;;
75628;SDS011;64213;46.452;16.994;2023-05-02T11:37:10;9.53;;;4.17;;
75628;SDS011;64213;46.452;16.994;2023-05-02T11:40:14;8.93;;;3.90;;
75628;SDS011;64213;46.452;16.994;2023-05-02T11:43:17;15.70;;;4.10;;
75628;SDS011;64213;46.452;16.994;2023-05-02T11:46:19;10.75;;;3.90;;
75628;SDS011;64213;46.452;16.994;2023-05-02T11:49:21;9.30;;;3.75;;
75628;SDS011;64213;46.452;16.994;2023-05-02T11:52:23;8.57;;;3.60;;
75628;SDS011;64213;46.452;16.994;2023-05-02T11:55:26;9.18;;;3.55;;
75628;SDS011;64213;46.452;16.994;2023-05-02T11:58:29;8.70;;;3.35;;
75628;SDS011;64213;46.452;16.994;2023-05-02T12:01:33;10.20;;;3.85;;
75628;SDS011;64213;46.452;16.994;2023-05-02T12:04:41;9.55;;;4.62;;
75628;SDS011;64213;46.452;16.994;2023-05-02T12:07:47;9.50;;;4.13;;
75628;SDS011;64213;46.452;16.994;2023-05-02T12:10:50;11.12;;;4.20;;
75628;SDS011;64213;46.452;16.994;2023-05-02T12:13:54;8.85;;;4.40;;
75628;SDS011;64213;46.452;16.994;2023-05-02T12:16:56;12.95;;;3.83;;
75628;SDS011;64213;46.452;16.994;2023-05-02T12:20:00;5.72;;;2.00;;
75628;SDS011;64213;46.452;16.994;2023-05-02T12:23:04;10.87;;;3.40;;
75628;SDS011;64213;46.452;16.994;2023-05-02T12:29:36;11.70;;;4.45;;
75628;SDS011;64213;46.452;16.994;2023-05-02T12:32:39;10.23;;;4.22;;
75628;SDS011;64213;46.452;16.994;2023-05-02T12:35:46;10.18;;;3.90;;
75628;SDS011;64213;46.452;16.994;2023-05-02T12:38:49;7.70;;;3.00;;
75628;SDS011;64213;46.452;16.994;2023-05-02T12:41:53;8.40;;;3.50;;
75628;SDS011;64213;46.452;16.994;2023-05-02T12:44:55;9.88;;;4.57;;
75628;SDS011;64213;46.452;16.994;2023-05-02T12:47:57;11.12;;;3.87;;
75628;SDS011;64213;46.452;16.994;2023-05-02T12:51:00;10.63;;;3.92;;
75628;SDS011;64213;46.452;16.994;2023-05-02T12:54:02;9.80;;;4.63;;
75628;SDS011;64213;46.452;16.994;2023-05-02T12:57:05;8.98;;;3.92;;
75628;SDS011;64213;46.452;16.994;2023-05-02T13:00:08;8.55;;;3.20;;
75628;SDS011;64213;46.452;16.994;2023-05-02T13:03:10;8.75;;;3.75;;
75628;SDS011;64213;46.452;16.994;2023-05-02T13:06:13;8.90;;;4.18;;
75628;SDS011;64213;46.452;16.994;2023-05-02T13:09:15;9.17;;;3.23;;
75628;SDS011;64213;46.452;16.994;2023-05-02T13:12:17;8.15;;;2.58;;
75628;SDS011;64213;46.452;16.994;2023-05-02T13:15:19;8.90;;;4.15;;
75628;SDS011;64213;46.452;16.994;2023-05-02T13:18:22;10.60;;;4.70;;
75628;SDS011;64213;46.452;16.994;2023-05-02T13:21:24;10.55;;;4.35;;
75628;SDS011;64213;46.452;16.994;2023-05-02T13:24:26;11.17;;;4.80;;
75628;SDS011;64213;46.452;16.994;2023-05-02T13:27:28;11.15;;;4.20;;
75628;SDS011;64213;46.452;16.994;2023-05-02T13:30:30;12.18;;;4.45;;
75628;SDS011;64213;46.452;16.994;2023-05-02T13:33:33;11.38;;;4.15;;
75628;SDS011;64213;46.452;16.994;2023-05-02T13:36:35;9.23;;;4.50;;
75628;SDS011;64213;46.452;16.994;2023-05-02T13:39:41;13.00;;;4.83;;
75628;SDS011;64213;46.452;16.994;2023-05-02T13:42:43;11.12;;;4.65;;
75628;SDS011;64213;46.452;16.994;2023-05-02T13:45:45;9.80;;;4.87;;
75628;SDS011;64213;46.452;16.994;2023-05-02T13:48:49;11.50;;;4.78;;
75628;SDS011;64213;46.452;16.994;2023-05-02T13:51:52;10.50;;;4.80;;
75628;SDS011;64213;46.452;16.994;2023-05-02T13:54:54;10.77;;;5.17;;
75628;SDS011;64213;46.452;16.994;2023-05-02T13:57:57;12.27;;;5.43;;
75628;SDS011;64213;46.452;16.994;2023-05-02T14:00:59;11.50;;;5.35;;
75628;SDS011;64213;46.452;16.994;2023-05-02T14:04:01;14.82;;;7.40;;
75628;SDS011;64213;46.452;16.994;2023-05-02T14:07:09;15.38;;;6.85;;
75628;SDS011;64213;46.452;16.994;2023-05-02T14:10:11;15.43;;;6.20;;
75628;SDS011;64213;46.452;16.994;2023-05-02T14:13:13;16.42;;;5.80;;
75628;SDS011;64213;46.452;16.994;2023-05-02T14:16:15;13.85;;;6.85;;
75628;SDS011;64213;46.452;16.994;2023-05-02T14:19:17;13.05;;;6.10;;
75628;SDS011;64213;46.452;16.994;2023-05-02T14:22:20;13.65;;;6.43;;
75628;SDS011;64213;46.452;16.994;2023-05-02T14:25:22;15.37;;;7.27;;
75628;SDS011;64213;46.452;16.994;2023-05-02T14:28:24;14.00;;;6.87;;
75628;SDS011;64213;46.452;16.994;2023-05-02T14:31:27;15.18;;;7.57;;
75628;SDS011;64213;46.452;16.994;2023-05-02T14:34:29;14.30;;;7.03;;
75628;SDS011;64213;46.452;16.994;2023-05-02T14:37:31;16.52;;;7.50;;
75628;SDS011;64213;46.452;16.994;2023-05-02T14:40:34;15.13;;;7.97;;
75628;SDS011;64213;46.452;16.994;2023-05-02T14:43:36;17.37;;;8.05;;
75628;SDS011;64213;46.452;16.994;2023-05-02T14:46:39;15.55;;;8.13;;
75628;SDS011;64213;46.452;16.994;2023-05-02T14:49:42;16.30;;;8.73;;
75628;SDS011;64213;46.452;16.994;2023-05-02T14:52:44;21.15;;;7.95;;
75628;SDS011;64213;46.452;16.994;2023-05-02T14:55:49;17.50;;;8.47;;
75628;SDS011;64213;46.452;16.994;2023-05-02T14:58:52;23.17;;;10.10;;
75628;SDS011;64213;46.452;16.994;2023-05-02T15:01:54;20.05;;;10.32;;
75628;SDS011;64213;46.452;16.994;2023-05-02T15:04:56;20.48;;;10.40;;
75628;SDS011;64213;46.452;16.994;2023-05-02T15:07:58;20.23;;;10.18;;
75628;SDS011;64213;46.452;16.994;2023-05-02T15:11:00;19.83;;;9.70;;
75628;SDS011;64213;46.452;16.994;2023-05-02T15:14:03;18.23;;;10.00;;
75628;SDS011;64213;46.452;16.994;2023-05-02T15:17:05;19.00;;;10.25;;
75628;SDS011;64213;46.452;16.994;2023-05-02T15:20:07;18.73;;;10.07;;
75628;SDS011;64213;46.452;16.994;2023-05-02T15:23:10;20.80;;;10.00;;
75628;SDS011;64213;46.452;16.994;2023-05-02T15:26:12;19.03;;;9.93;;
75628;SDS011;64213;46.452;16.994;2023-05-02T15:29:14;17.37;;;9.65;;
75628;SDS011;64213;46.452;16.994;2023-05-02T15:32:16;18.50;;;10.85;;
75628;SDS011;64213;46.452;16.994;2023-05-02T15:35:19;17.55;;;9.73;;
75628;SDS011;64213;46.452;16.994;2023-05-02T15:38:21;17.35;;;9.50;;
75628;SDS011;64213;46.452;16.994;2023-05-02T15:41:25;18.67;;;9.80;;
75628;SDS011;64213;46.452;16.994;2023-05-02T15:44:27;17.65;;;9.98;;
75628;SDS011;64213;46.452;16.994;2023-05-02T15:47:29;19.90;;;11.07;;
75628;SDS011;64213;46.452;16.994;2023-05-02T15:50:32;19.55;;;10.73;;
75628;SDS011;64213;46.452;16.994;2023-05-02T15:53:35;22.05;;;10.65;;
75628;SDS011;64213;46.452;16.994;2023-05-02T15:56:40;18.77;;;10.07;;
75628;SDS011;64213;46.452;16.994;2023-05-02T15:59:42;20.10;;;11.10;;
75628;SDS011;64213;46.452;16.994;2023-05-02T16:02:44;22.85;;;11.82;;
75628;SDS011;64213;46.452;16.994;2023-05-02T16:05:46;20.60;;;11.43;;
75628;SDS011;64213;46.452;16.994;2023-05-02T16:08:48;20.00;;;10.60;;
75628;SDS011;64213;46.452;16.994;2023-05-02T16:11:50;18.70;;;9.17;;
75628;SDS011;64213;46.452;16.994;2023-05-02T16:14:52;19.25;;;10.18;;
75628;SDS011;64213;46.452;16.994;2023-05-02T16:17:54;21.80;;;11.38;;
75628;SDS011;64213;46.452;16.994;2023-05-02T16:20:57;19.02;;;9.98;;
75628;SDS011;64213;46.452;16.994;2023-05-02T16:24:00;19.55;;;10.32;;
75628;SDS011;64213;46.452;16.994;2023-05-02T16:27:02;19.23;;;10.47;;
75628;SDS011;64213;46.452;16.994;2023-05-02T16:30:04;18.42;;;10.25;;
75628;SDS011;64213;46.452;16.994;2023-05-02T16:33:07;18.12;;;8.85;;
75628;SDS011;64213;46.452;16.994;2023-05-02T16:36:09;22.35;;;9.90;;
75628;SDS011;64213;46.452;16.994;2023-05-02T16:39:11;16.37;;;8.88;;
75628;SDS011;64213;46.452;16.994;2023-05-02T16:42:13;16.67;;;8.90;;
75628;SDS011;64213;46.452;16.994;2023-05-02T16:45:15;15.27;;;8.40;;
75628;SDS011;64213;46.452;16.994;2023-05-02T16:48:17;16.83;;;9.15;;
75628;SDS011;64213;46.452;16.994;2023-05-02T16:51:19;19.85;;;10.40;;
75628;SDS011;64213;46.452;16.994;2023-05-02T16:54:22;18.30;;;9.60;;
75628;SDS011;64213;46.452;16.994;2023-05-02T16:57:23;17.80;;;9.73;;
75628;SDS011;64213;46.452;16.994;2023-05-02T17:00:26;17.67;;;8.93;;
75628;SDS011;64213;46.452;16.994;2023-05-02T17:03:28;16.80;;;8.80;;
75628;SDS011;64213;46.452;16.994;2023-05-02T17:06:30;16.23;;;7.50;;
75628;SDS011;64213;46.452;16.994;2023-05-02T17:09:33;20.52;;;10.55;;
75628;SDS011;64213;46.452;16.994;2023-05-02T17:12:37;19.00;;;9.53;;
75628;SDS011;64213;46.452;16.994;2023-05-02T17:15:39;18.17;;;9.57;;
75628;SDS011;64213;46.452;16.994;2023-05-02T17:18:41;19.95;;;10.15;;
75628;SDS011;64213;46.452;16.994;2023-05-02T17:21:44;18.58;;;9.63;;
75628;SDS011;64213;46.452;16.994;2023-05-02T17:24:46;19.60;;;9.32;;
75628;SDS011;64213;46.452;16.994;2023-05-02T17:27:51;19.63;;;9.87;;
75628;SDS011;64213;46.452;16.994;2023-05-02T17:30:53;17.10;;;9.10;;
75628;SDS011;64213;46.452;16.994;2023-05-02T17:33:57;18.70;;;8.75;;
75628;SDS011;64213;46.452;16.994;2023-05-02T17:36:59;17.35;;;9.23;;
75628;SDS011;64213;46.452;16.994;2023-05-02T17:40:01;18.60;;;8.45;;
75628;SDS011;64213;46.452;16.994;2023-05-02T17:43:05;17.17;;;8.10;;
75628;SDS011;64213;46.452;16.994;2023-05-02T17:46:07;19.65;;;9.98;;
75628;SDS011;64213;46.452;16.994;2023-05-02T17:49:10;17.85;;;8.73;;
75628;SDS011;64213;46.452;16.994;2023-05-02T17:52:13;18.52;;;9.05;;
75628;SDS011;64213;46.452;16.994;2023-05-02T17:55:15;17.17;;;8.30;;
75628;SDS011;64213;46.452;16.994;2023-05-02T17:58:19;15.20;;;7.23;;
75628;SDS011;64213;46.452;16.994;2023-05-02T18:01:22;16.92;;;8.25;;
75628;SDS011;64213;46.452;16.994;2023-05-02T18:04:24;17.92;;;8.52;;
75628;SDS011;64213;46.452;16.994;2023-05-02T18:07:28;18.60;;;10.02;;
75628;SDS011;64213;46.452;16.994;2023-05-02T18:10:36;20.83;;;9.30;;
75628;SDS011;64213;46.452;16.994;2023-05-02T18:13:39;18.60;;;8.90;;
75628;SDS011;64213;46.452;16.994;2023-05-02T18:16:41;19.25;;;9.73;;
75628;SDS011;64213;46.452;16.994;2023-05-02T18:19:47;17.42;;;8.48;;
75628;SDS011;64213;46.452;16.994;2023-05-02T18:22:51;16.77;;;8.38;;
75628;SDS011;64213;46.452;16.994;2023-05-02T18:25:56;17.75;;;7.70;;
75628;SDS011;64213;46.452;16.994;2023-05-02T18:28:58;16.33;;;8.20;;
75628;SDS011;64213;46.452;16.994;2023-05-02T18:32:01;16.90;;;8.57;;
75628;SDS011;64213;46.452;16.994;2023-05-02T18:35:06;15.07;;;7.12;;
75628;SDS011;64213;46.452;16.994;2023-05-02T18:38:11;16.12;;;7.85;;
75628;SDS011;64213;46.452;16.994;2023-05-02T18:41:13;16.33;;;8.33;;
75628;SDS011;64213;46.452;16.994;2023-05-02T18:44:16;16.37;;;8.47;;